createdAt,value
2023-03-26T00:00:54.284Z,82.37
2023-03-26T00:03:22.455Z,82.42
2023-03-26T00:06:03.938Z,82.79
2023-03-26T00:08:31.926Z,82.73
2023-03-26T00:11:00.998Z,82.66
2023-03-26T00:13:32.143Z,82.73
2023-03-26T00:16:01.151Z,82.53
2023-03-26T00:18:31.513Z,82.77
2023-03-26T00:21:02.006Z,83.30
2023-03-26T00:23:31.540Z,83.52
2023-03-26T00:26:00.859Z,83.09
2023-03-26T00:28:29.642Z,83.27
2023-03-26T00:31:28.428Z,83.42
2023-03-26T00:33:56.314Z,83.79
2023-03-26T00:36:27.172Z,83.97
2023-03-26T00:38:55.719Z,84.42
2023-03-26T00:41:26.922Z,84.43
2023-03-26T00:43:56.663Z,84.26
2023-03-26T00:46:24.834Z,84.51
2023-03-26T00:48:52.652Z,84.34
2023-03-26T00:51:21.924Z,84.85
2023-03-26T00:53:51.993Z,84.50
2023-03-26T00:56:20.352Z,84.75
2023-03-26T00:58:50.029Z,85.12
2023-03-26T01:01:20.737Z,85.16
2023-03-26T01:04:06.827Z,85.00
2023-03-26T01:06:36.585Z,85.07
2023-03-26T01:09:13.441Z,85.08
2023-03-26T01:11:41.477Z,84.78
2023-03-26T01:14:12.710Z,84.75
2023-03-26T01:16:45.016Z,84.25
2023-03-26T01:19:21.194Z,84.31
2023-03-26T01:21:49.138Z,84.32
2023-03-26T01:24:18.341Z,83.91
2023-03-26T01:27:24.438Z,84.11
2023-03-26T01:29:55.722Z,83.63
2023-03-26T01:32:30.909Z,83.50
2023-03-26T01:35:12.370Z,83.65
2023-03-26T01:37:52.792Z,83.24
2023-03-26T01:40:27.320Z,83.54
2023-03-26T01:42:59.729Z,83.16
2023-03-26T01:45:31.403Z,83.01
2023-03-26T01:48:00.271Z,82.77
2023-03-26T01:50:28.068Z,82.55
2023-03-26T01:52:55.745Z,82.40
2023-03-26T01:55:30.013Z,82.38
2023-03-26T01:58:06.274Z,82.63
2023-03-26T02:00:40.236Z,82.34
2023-03-26T02:03:18.837Z,82.35
2023-03-26T02:05:53.791Z,82.21
2023-03-26T02:08:25.735Z,82.25
2023-03-26T02:10:59.110Z,81.69
2023-03-26T02:13:27.523Z,81.61
2023-03-26T02:15:57.736Z,81.56
2023-03-26T02:18:28.814Z,81.99
2023-03-26T02:20:56.634Z,81.95
2023-03-26T02:23:46.637Z,81.38
2023-03-26T02:26:18.529Z,81.29
2023-03-26T02:28:46.295Z,82.01
2023-03-26T02:31:16.188Z,83.12
2023-03-26T02:33:44.534Z,84.07
2023-03-26T02:36:14.065Z,84.37
2023-03-26T02:38:41.903Z,84.90
2023-03-26T02:41:09.628Z,85.75
2023-03-26T02:46:20.209Z,86.75
2023-03-26T02:48:47.993Z,86.81
2023-03-26T02:51:18.174Z,86.98
2023-03-26T02:53:46.010Z,86.70
2023-03-26T02:56:14.014Z,87.00
2023-03-26T02:58:43.173Z,86.26
2023-03-26T03:01:10.975Z,86.19
2023-03-26T03:03:38.760Z,86.00
2023-03-26T03:06:06.766Z,85.73
2023-03-26T03:08:34.537Z,85.74
2023-03-26T03:11:08.022Z,85.80
2023-03-26T03:13:35.851Z,85.85
2023-03-26T03:16:05.734Z,85.91
2023-03-26T03:18:33.561Z,85.47
2023-03-26T03:21:01.428Z,85.38
2023-03-26T03:23:29.218Z,85.52
2023-03-26T03:25:58.054Z,85.70
2023-03-26T03:28:26.678Z,85.81
2023-03-26T03:30:57.528Z,86.18
2023-03-26T03:33:26.765Z,86.17
2023-03-26T03:35:54.663Z,86.37
2023-03-26T03:38:22.528Z,86.68
2023-03-26T03:40:51.150Z,86.23
2023-03-26T03:43:18.939Z,86.62
2023-03-26T03:45:47.419Z,86.87
2023-03-26T03:48:15.145Z,86.77
2023-03-26T03:50:44.173Z,86.26
2023-03-26T03:53:16.258Z,86.60
2023-03-26T03:55:53.251Z,86.38
2023-03-26T03:58:22.334Z,86.35
2023-03-26T04:00:50.437Z,86.12
2023-03-26T04:03:19.330Z,86.58
2023-03-26T04:06:02.669Z,86.96
2023-03-26T04:08:30.342Z,86.74
2023-03-26T04:10:58.037Z,86.68
2023-03-26T04:13:25.853Z,86.69
2023-03-26T04:15:53.830Z,86.52
2023-03-26T04:18:22.315Z,86.54
2023-03-26T04:20:50.825Z,86.64
2023-03-26T04:23:21.029Z,86.75
2023-03-26T04:25:53.900Z,87.32
2023-03-26T04:28:30.470Z,87.46
2023-03-26T04:31:01.364Z,87.65
2023-03-26T04:33:30.505Z,87.54
2023-03-26T04:36:02.446Z,87.79
2023-03-26T04:38:35.590Z,87.36
2023-03-26T04:41:04.628Z,87.50
2023-03-26T04:43:35.434Z,87.42
2023-03-26T04:46:04.643Z,86.89
2023-03-26T04:48:32.719Z,86.84
2023-03-26T04:51:01.419Z,86.56
2023-03-26T04:53:29.358Z,85.90
2023-03-26T04:56:02.333Z,85.52
2023-03-26T04:58:33.102Z,85.15
2023-03-26T05:01:10.151Z,85.21
2023-03-26T05:03:41.361Z,85.26
2023-03-26T05:06:14.424Z,85.51
2023-03-26T05:08:42.125Z,85.57
2023-03-26T05:11:11.928Z,85.39
2023-03-26T05:13:42.758Z,85.60
2023-03-26T05:16:10.980Z,85.67
2023-03-26T05:18:38.858Z,86.10
2023-03-26T05:21:07.139Z,86.49
2023-03-26T05:23:34.935Z,86.48
2023-03-26T05:26:02.746Z,86.22
2023-03-26T05:28:31.780Z,86.07
2023-03-26T05:31:00.997Z,85.96
2023-03-26T05:33:28.982Z,86.42
2023-03-26T05:36:01.329Z,86.72
2023-03-26T05:38:29.899Z,87.19
2023-03-26T05:41:01.233Z,87.55
2023-03-26T05:43:29.410Z,87.74
2023-03-26T05:45:58.632Z,88.41
2023-03-26T05:48:27.079Z,88.34
2023-03-26T05:50:56.867Z,89.24
2023-03-26T05:53:26.461Z,89.04
2023-03-26T05:55:57.854Z,89.91
2023-03-26T05:58:26.131Z,90.01
2023-03-26T06:01:06.009Z,89.89
2023-03-26T06:03:34.458Z,89.63
2023-03-26T06:06:03.803Z,89.78
2023-03-26T06:08:32.443Z,90.06
2023-03-26T06:11:01.142Z,90.49
2023-03-26T06:13:29.082Z,90.61
2023-03-26T06:15:57.891Z,90.76
2023-03-26T06:18:27.786Z,91.28
2023-03-26T06:20:55.971Z,91.79
2023-03-26T06:23:23.877Z,92.36
2023-03-26T06:25:51.661Z,92.13
2023-03-26T06:28:19.500Z,92.17
2023-03-26T06:30:47.179Z,94.30
2023-03-26T06:33:15.040Z,93.82
2023-03-26T06:35:45.472Z,94.25
2023-03-26T06:38:14.055Z,94.08
2023-03-26T06:40:41.803Z,93.63
2023-03-26T06:43:10.839Z,94.38
2023-03-26T06:45:39.213Z,94.29
2023-03-26T06:48:08.309Z,93.98
2023-03-26T06:50:42.129Z,93.98
2023-03-26T06:53:13.388Z,94.68
2023-03-26T06:55:41.818Z,94.67
2023-03-26T06:58:12.597Z,94.41
2023-03-26T07:00:40.583Z,94.47
2023-03-26T07:03:08.784Z,94.24
2023-03-26T07:05:36.552Z,94.60
2023-03-26T07:08:04.465Z,94.97
2023-03-26T07:10:33.650Z,96.40
2023-03-26T07:13:04.084Z,96.65
2023-03-26T07:15:31.922Z,96.47
2023-03-26T07:17:59.930Z,96.60
2023-03-26T07:20:28.219Z,96.96
2023-03-26T07:22:56.307Z,97.84
2023-03-26T07:25:24.668Z,97.95
2023-03-26T07:28:06.676Z,97.84
2023-03-26T07:30:48.039Z,97.77
2023-03-26T07:33:19.446Z,98.38
2023-03-26T07:35:51.877Z,98.69
2023-03-26T07:38:38.082Z,99.07
2023-03-26T07:45:00.281Z,99.71
2023-03-26T07:47:31.556Z,99.75
2023-03-26T07:49:59.836Z,100.00
2023-03-26T07:52:28.584Z,100.00
2023-03-26T07:54:57.079Z,100.00
2023-03-26T07:57:38.637Z,100.00
2023-03-26T08:00:16.142Z,100.00
2023-03-26T08:03:05.398Z,100.00
2023-03-26T08:05:36.059Z,100.00
2023-03-26T08:08:14.615Z,100.00
2023-03-26T08:10:51.351Z,100.00
2023-03-26T08:13:26.329Z,100.00
2023-03-26T08:16:05.520Z,100.00
2023-03-26T08:18:44.561Z,100.00
2023-03-26T08:21:17.161Z,100.00
2023-03-26T08:23:58.890Z,100.00
2023-03-26T08:26:35.236Z,100.00
2023-03-26T08:29:10.504Z,100.00
2023-03-26T08:31:42.402Z,100.00
2023-03-26T08:34:12.581Z,100.00
2023-03-26T08:36:40.424Z,100.00
2023-03-26T08:39:09.004Z,100.00
2023-03-26T08:42:21.197Z,100.00
2023-03-26T08:45:28.300Z,100.00
2023-03-26T08:48:22.446Z,100.00
2023-03-26T08:51:19.999Z,100.00
2023-03-26T08:54:22.796Z,100.00
2023-03-26T08:56:58.265Z,100.00
2023-03-26T09:00:16.470Z,100.00
2023-03-26T09:03:18.315Z,100.00
2023-03-26T09:06:20.262Z,100.00
2023-03-26T09:09:19.044Z,100.00
2023-03-26T09:12:36.341Z,100.00
2023-03-26T09:15:37.720Z,100.00
2023-03-26T09:18:34.604Z,100.00
2023-03-26T09:21:25.568Z,99.19
2023-03-26T09:24:30.965Z,98.80
2023-03-26T09:27:09.142Z,98.90
2023-03-26T09:30:10.318Z,99.86
2023-03-26T09:33:11.636Z,99.80
2023-03-26T09:35:55.463Z,98.55
2023-03-26T09:38:40.492Z,98.42
2023-03-26T09:41:16.317Z,98.33
2023-03-26T09:44:41.732Z,98.66
2023-03-26T09:47:41.465Z,99.34
2023-03-26T09:50:29.866Z,99.88
2023-03-26T09:53:13.913Z,99.47
2023-03-26T09:55:56.764Z,98.12
2023-03-26T09:58:49.296Z,96.22
2023-03-26T10:01:26.239Z,95.24
2023-03-26T10:04:03.672Z,94.92
2023-03-26T10:06:40.792Z,92.88
2023-03-26T10:09:20.529Z,89.88
2023-03-26T10:12:03.700Z,88.18
2023-03-26T10:14:39.270Z,86.19
2023-03-26T10:17:25.668Z,86.24
2023-03-26T10:20:09.760Z,85.30
2023-03-26T10:22:49.893Z,85.43
2023-03-26T10:25:43.310Z,82.99
2023-03-26T10:28:26.342Z,84.43
2023-03-26T10:31:06.030Z,85.46
2023-03-26T10:33:44.875Z,89.58
2023-03-26T10:36:35.489Z,92.63
2023-03-26T10:39:37.029Z,95.91
2023-03-26T10:42:22.245Z,96.84
2023-03-26T10:45:07.842Z,97.17
2023-03-26T10:48:02.118Z,98.25
2023-03-26T10:50:55.523Z,100.00
2023-03-26T10:53:34.341Z,100.00
2023-03-26T10:56:10.862Z,100.00
2023-03-26T10:58:46.094Z,100.00
2023-03-26T11:01:40.721Z,99.65
2023-03-26T11:04:21.930Z,93.96
2023-03-26T11:07:17.556Z,90.16
2023-03-26T11:09:50.937Z,83.62
2023-03-26T11:12:28.214Z,82.61
2023-03-26T11:15:09.451Z,77.86
2023-03-26T11:17:46.899Z,74.54
2023-03-26T11:20:21.090Z,75.01
2023-03-26T11:23:02.760Z,69.69
2023-03-26T11:25:44.440Z,67.79
2023-03-26T11:28:24.817Z,67.89
2023-03-26T11:31:00.173Z,67.06
2023-03-26T11:33:33.969Z,69.60
2023-03-26T11:36:06.866Z,69.28
2023-03-26T11:38:38.394Z,73.97
2023-03-26T11:41:14.613Z,77.54
2023-03-26T11:43:43.634Z,79.50
2023-03-26T11:46:15.540Z,78.32
2023-03-26T11:48:46.864Z,79.50
2023-03-26T11:51:19.829Z,81.72
2023-03-26T11:53:48.778Z,80.24
2023-03-26T11:56:24.604Z,77.89
2023-03-26T11:58:58.118Z,77.56
2023-03-26T12:01:30.454Z,76.29
2023-03-26T12:04:03.973Z,72.57
2023-03-26T12:06:33.085Z,70.90
2023-03-26T12:09:00.966Z,69.13
2023-03-26T12:11:35.322Z,66.55
2023-03-26T12:14:06.074Z,65.46
2023-03-26T12:16:36.309Z,61.50
2023-03-26T12:19:07.362Z,60.08
2023-03-26T12:21:46.944Z,57.95
2023-03-26T12:24:28.070Z,55.96
2023-03-26T12:27:01.986Z,57.57
2023-03-26T12:29:34.339Z,56.22
2023-03-26T12:32:14.273Z,58.48
2023-03-26T12:34:42.862Z,56.20
2023-03-26T12:37:39.313Z,55.86
2023-03-26T12:40:15.980Z,55.11
2023-03-26T12:44:50.878Z,54.11
2023-03-26T12:45:44.196Z,54.43
2023-03-26T12:48:17.697Z,53.87
2023-03-26T12:51:00.285Z,54.30
2023-03-26T12:53:39.621Z,52.99
2023-03-26T12:56:19.893Z,50.16
2023-03-26T12:59:07.540Z,51.03
2023-03-26T13:01:50.463Z,50.92
2023-03-26T13:04:37.673Z,50.29
2023-03-26T13:07:15.362Z,49.39
2023-03-26T13:09:56.004Z,48.47
2023-03-26T13:12:35.520Z,47.21
2023-03-26T13:15:16.576Z,45.91
2023-03-26T13:17:53.826Z,45.66
2023-03-26T13:20:29.400Z,47.92
2023-03-26T13:23:04.616Z,45.95
2023-03-26T13:25:41.671Z,47.46
2023-03-26T13:28:22.331Z,45.27
2023-03-26T13:30:58.173Z,46.05
2023-03-26T13:33:41.091Z,47.89
2023-03-26T13:36:23.773Z,48.72
2023-03-26T13:39:08.208Z,47.83
2023-03-26T13:41:48.078Z,47.22
2023-03-26T13:44:24.733Z,47.67
2023-03-26T13:46:56.103Z,47.97
2023-03-26T13:49:30.304Z,48.79
2023-03-26T13:52:04.282Z,48.39
2023-03-26T13:54:35.830Z,48.66
2023-03-26T13:57:08.696Z,48.44
2023-03-26T13:59:42.001Z,48.93
2023-03-26T14:02:15.566Z,49.15
2023-03-26T14:04:48.614Z,49.73
2023-03-26T14:07:23.389Z,49.87
2023-03-26T14:09:57.260Z,50.67
2023-03-26T14:12:37.523Z,50.44
2023-03-26T14:15:06.933Z,49.15
2023-03-26T14:17:39.966Z,50.41
2023-03-26T14:20:49.454Z,50.70
2023-03-26T14:23:32.749Z,50.19
2023-03-26T14:26:18.021Z,50.59
2023-03-26T14:29:19.737Z,51.78
2023-03-26T14:31:54.755Z,50.50
2023-03-26T14:34:38.445Z,51.22
2023-03-26T14:37:31.533Z,50.51
2023-03-26T14:40:37.668Z,51.83
2023-03-26T14:43:31.357Z,52.07
2023-03-26T14:46:14.464Z,52.22
2023-03-26T14:49:07.590Z,52.79
2023-03-26T14:51:47.095Z,52.55
2023-03-26T14:54:20.348Z,52.66
2023-03-26T14:57:06.192Z,52.44
2023-03-26T15:00:07.088Z,53.11
2023-03-26T15:03:27.246Z,54.58
2023-03-26T15:06:07.661Z,54.06
2023-03-26T15:09:12.520Z,53.69
2023-03-26T15:11:49.111Z,53.99
2023-03-26T15:14:44.388Z,53.46
2023-03-26T15:17:44.987Z,54.07
2023-03-26T15:20:57.635Z,54.11
2023-03-26T15:23:57.995Z,53.28
2023-03-26T15:26:59.223Z,54.86
2023-03-26T15:29:53.357Z,55.41
2023-03-26T15:32:57.321Z,55.52
2023-03-26T15:35:52.814Z,55.35
2023-03-26T15:39:00.931Z,55.74
2023-03-26T15:41:35.790Z,57.43
2023-03-26T15:44:40.938Z,56.88
2023-03-26T15:47:32.567Z,56.72
2023-03-26T15:50:16.659Z,56.95
2023-03-26T15:52:53.736Z,57.25
2023-03-26T15:55:31.549Z,57.83
2023-03-26T15:58:07.823Z,58.24
2023-03-26T16:00:37.616Z,59.15
2023-03-26T16:03:25.954Z,59.00
2023-03-26T16:06:11.381Z,59.27
2023-03-26T16:08:47.021Z,59.66
2023-03-26T16:11:15.581Z,60.39
2023-03-26T16:13:44.872Z,61.20
2023-03-26T16:16:22.447Z,60.33
2023-03-26T16:18:56.500Z,59.97
2023-03-26T16:21:40.329Z,59.10
2023-03-26T16:24:31.969Z,59.56
2023-03-26T16:27:29.846Z,60.28
2023-03-26T16:30:30.241Z,60.88
2023-03-26T16:33:04.067Z,60.96
2023-03-26T16:35:41.687Z,61.95
2023-03-26T16:38:16.131Z,62.44
2023-03-26T16:40:59.965Z,62.46
2023-03-26T16:43:43.292Z,62.00
2023-03-26T16:46:17.383Z,62.24
2023-03-26T16:48:56.217Z,63.01
2023-03-26T16:51:31.885Z,64.61
2023-03-26T16:54:13.360Z,65.42
2023-03-26T16:56:49.451Z,67.79
2023-03-26T16:59:40.145Z,69.81
2023-03-26T17:02:22.261Z,71.15
2023-03-26T17:04:54.733Z,70.80
2023-03-26T17:07:31.410Z,72.58
2023-03-26T17:10:10.014Z,72.34
2023-03-26T17:12:42.958Z,71.47
2023-03-26T17:15:34.390Z,72.51
2023-03-26T17:18:18.527Z,71.45
2023-03-26T17:20:59.671Z,71.25
2023-03-26T17:23:39.022Z,72.22
2023-03-26T17:26:17.585Z,72.19
2023-03-26T17:28:58.736Z,72.30
2023-03-26T17:31:38.800Z,71.09
2023-03-26T17:34:34.930Z,71.06
2023-03-26T17:37:05.342Z,72.31
2023-03-26T17:40:12.406Z,72.72
2023-03-26T17:43:01.990Z,72.53
2023-03-26T17:45:34.752Z,72.13
2023-03-26T17:48:06.367Z,72.93
2023-03-26T17:50:42.052Z,73.49
2023-03-26T17:53:18.044Z,72.91
2023-03-26T17:55:49.583Z,73.72
2023-03-26T17:58:28.044Z,73.42
2023-03-26T18:01:06.584Z,73.31
2023-03-26T18:03:39.939Z,73.57
2023-03-26T18:06:10.715Z,73.99
2023-03-26T18:08:47.978Z,74.17
2023-03-26T18:11:43.671Z,73.97
2023-03-26T18:14:41.209Z,74.43
2023-03-26T18:17:11.363Z,73.40
2023-03-26T18:19:50.741Z,72.94
2023-03-26T18:22:23.309Z,74.19
2023-03-26T18:24:52.043Z,73.55
2023-03-26T18:27:23.371Z,73.43
2023-03-26T18:30:02.669Z,73.67
2023-03-26T18:32:33.866Z,74.02
2023-03-26T18:35:14.493Z,74.28
2023-03-26T18:37:46.122Z,74.28
2023-03-26T18:40:19.126Z,74.52
2023-03-26T18:42:49.503Z,74.25
2023-03-26T18:45:25.756Z,74.86
2023-03-26T18:47:57.809Z,75.07
2023-03-26T18:50:29.332Z,75.09
2023-03-26T18:53:00.587Z,75.34
2023-03-26T18:55:30.348Z,75.37
2023-03-26T18:57:58.481Z,75.69
2023-03-26T19:00:29.277Z,75.52
2023-03-26T19:03:04.700Z,75.57
2023-03-26T19:05:34.652Z,75.47
2023-03-26T19:08:04.870Z,75.90
2023-03-26T19:10:33.775Z,76.11
2023-03-26T19:13:03.197Z,76.49
2023-03-26T19:15:33.613Z,77.17
2023-03-26T19:18:09.811Z,77.78
2023-03-26T19:20:43.732Z,78.17
2023-03-26T19:23:16.177Z,79.01
2023-03-26T19:25:47.618Z,79.82
2023-03-26T19:28:22.839Z,81.14
2023-03-26T19:30:56.463Z,81.70
2023-03-26T19:33:33.207Z,82.87
2023-03-26T19:36:04.866Z,82.95
2023-03-26T19:38:40.177Z,84.19
2023-03-26T19:41:19.563Z,84.39
2023-03-26T19:43:50.100Z,84.92
2023-03-26T19:46:18.833Z,85.51
2023-03-26T19:48:49.899Z,85.96
2023-03-26T19:51:22.966Z,87.21
2023-03-26T19:53:55.085Z,87.72
2023-03-26T19:56:23.506Z,87.94
2023-03-26T19:58:51.780Z,88.24
2023-03-26T20:01:22.121Z,87.97
2023-03-26T20:03:53.661Z,88.97
2023-03-26T20:06:30.827Z,89.01
2023-03-26T20:09:02.269Z,89.68
2023-03-26T20:11:34.348Z,90.68
2023-03-26T20:14:02.401Z,90.48
2023-03-26T20:16:31.896Z,91.16
2023-03-26T20:19:04.660Z,91.03
2023-03-26T20:21:34.601Z,91.27
2023-03-26T20:24:02.938Z,91.54
2023-03-26T20:26:30.778Z,91.40
2023-03-26T20:28:58.878Z,91.89
2023-03-26T20:31:28.164Z,92.41
2023-03-26T20:33:56.480Z,92.79
2023-03-26T20:36:34.309Z,92.53
2023-03-26T20:39:05.794Z,92.83
2023-03-26T20:41:36.925Z,92.11
2023-03-26T20:44:07.157Z,90.81
2023-03-26T20:46:35.002Z,91.07
2023-03-26T20:49:02.915Z,91.49
2023-03-26T20:51:32.159Z,90.94
2023-03-26T20:54:00.491Z,90.98
2023-03-26T20:56:28.934Z,90.74
2023-03-26T20:59:09.655Z,90.92
2023-03-26T21:01:38.984Z,91.20
2023-03-26T21:04:06.912Z,91.23
2023-03-26T21:06:36.378Z,90.72
2023-03-26T21:09:04.972Z,90.75
2023-03-26T21:11:46.112Z,90.46
2023-03-26T21:14:20.776Z,91.35
2023-03-26T21:16:49.260Z,90.61
2023-03-26T21:19:17.594Z,91.00
2023-03-26T21:21:59.864Z,91.49
2023-03-26T21:24:44.975Z,91.04
2023-03-26T21:27:20.331Z,90.70
2023-03-26T21:29:48.514Z,91.20
2023-03-26T21:32:16.800Z,90.27
2023-03-26T21:34:51.583Z,90.88
2023-03-26T21:37:28.034Z,91.67
2023-03-26T21:39:56.688Z,91.74
2023-03-26T21:42:27.121Z,91.94
2023-03-26T21:44:55.518Z,91.75
2023-03-26T21:47:25.791Z,92.07
2023-03-26T21:49:54.648Z,92.89
2023-03-26T21:52:23.898Z,92.87
2023-03-26T21:54:54.274Z,92.20
2023-03-26T21:57:43.464Z,91.01
2023-03-26T22:00:18.278Z,90.98
2023-03-26T22:03:00.945Z,90.27
2023-03-26T22:05:38.280Z,90.05
2023-03-26T22:08:08.090Z,90.08
2023-03-26T22:10:37.251Z,89.50
2023-03-26T22:13:04.935Z,89.97
2023-03-26T22:15:33.995Z,89.63
2023-03-26T22:18:02.703Z,89.21
2023-03-26T22:20:30.479Z,88.25
2023-03-26T22:22:59.610Z,89.52
2023-03-26T22:25:27.582Z,89.29
2023-03-26T22:27:57.494Z,90.17
2023-03-26T22:30:25.724Z,90.42
2023-03-26T22:32:53.569Z,90.29
2023-03-26T22:35:21.720Z,90.38
2023-03-26T22:37:50.022Z,91.02
2023-03-26T22:40:17.974Z,91.30
2023-03-26T22:42:45.915Z,91.38
2023-03-26T22:45:15.120Z,91.81
2023-03-26T22:47:43.257Z,92.11
2023-03-26T22:50:11.944Z,91.66
2023-03-26T22:52:40.722Z,91.10
2023-03-26T22:55:10.987Z,90.92
2023-03-26T22:57:38.908Z,90.91
2023-03-26T23:00:16.131Z,90.98
2023-03-26T23:02:45.985Z,90.68
2023-03-26T23:05:14.743Z,90.63
2023-03-26T23:07:43.467Z,89.97
2023-03-26T23:10:12.206Z,89.78
2023-03-26T23:12:40.164Z,89.53
2023-03-26T23:15:09.831Z,87.80
2023-03-26T23:17:38.665Z,86.56
2023-03-26T23:30:06.734Z,84.49
2023-03-26T23:32:37.844Z,85.30
2023-03-26T23:35:06.672Z,84.44
2023-03-26T23:37:42.402Z,83.65
2023-03-26T23:40:11.770Z,83.37
2023-03-26T23:42:40.854Z,83.27
2023-03-26T23:45:17.789Z,83.06
2023-03-26T23:47:45.485Z,83.82
2023-03-26T23:50:23.520Z,84.06
2023-03-26T23:52:51.820Z,84.37
2023-03-26T23:55:19.509Z,84.27
2023-03-26T23:57:48.822Z,85.08
